Terminal Aerodrome Forecast
Issued by NWS

Home | Current Version | Previous Version | Text Only | Print | Product List | Glossary Off
Versions: 1 2 3 4 5 6 7 8 9 10 11 12 13 14 15

000
FTUS42 KMHX 221739
TAFPGV
TAF
KPGV 221739Z 2218/2318 18006KT P6SM SCT250
     FM230000 17006KT P6SM BKN025
     FM230900 18009KT P6SM BKN008 OVC010 WS020/20040KT
     FM231300 18013G20KT 6SM -SHRA OVC015
      AMD LTD TO CLD VIS AND WIND=

USA.gov is the U.S. government's official web portal to all federal, state and local government web resources and services.